Pierpont, OH (44082)

4:21 PM EDT on March 26, 2017 (GMT -0400)
MOH092 | | Change Station

Elev 970 ft 41.78 °N, 80.57 °W | Updated 1 hour ago

Light Rain
Light Rain
67.0 °F
Feels Like 67.0 °F
N
9.0
Wind Variable Wind from ESE
Gusts 15.0 mph

Today
High -- | Low -- °F
--% Chance of Precip.
Yesterday
High -- | Low -- °F
Precip. -- in
Pressure 29.97 in
Visibility 10.0 miles
Clouds Few 4000 ft
Mostly Cloudy 4800 ft
Overcast 7500 ft
Dew Point 52.0 °F
Humidity 59%
Rainfall in
Snow Depth Not available.
7:14 AM 7:41 PM
Waning Crescent, 2% visible
METAR KHZY 261953Z AUTO 22011KT 10SM -RA FEW040 BKN048 OVC075 17/12 A2997 RMK AO2 RAB41 SLP148 P0000 T01720117 TSNO
Pressure 29.97 in
Visibility 10.0 miles
Clouds Few 4000 ft
Mostly Cloudy 4800 ft
Overcast 7500 ft
Dew Point 52.0 °F
Humidity 59%
Rainfall in
Snow Depth Not available.
7:14 AM 7:41 PM
Waning Crescent, 2% visible
METAR KHZY 261953Z AUTO 22011KT 10SM -RA FEW040 BKN048 OVC075 17/12 A2997 RMK AO2 RAB41 SLP148 P0000 T01720117 TSNO

Get Severe Weather Alerts

Thanks for signing up!

Be on the lookout for a verification email in your inbox.

You'll start receiving the daily forecast at 8 AM.

×

10-Day Weather Forecast

Almanac

Astronomy

Mar. 26, 2017 Rise Set
Actual Time
Civil Twilight
Nautical Twilight
Astronomical Twilight
Moon
Length of Visible Light
Length of Day
Tomorrow will be .
, % of the Moon is Illuminated

Today's Extremes

State Highs State Lows

Community

WunderPhotos

Upload Photos

1,962,540 photos uploaded!

WunderBlog® & News

Nearby

Air Quality

  Air Quality AQ Index Pollutant
Not available.

Snow Depth

Station Depth Elevation

Earthquake Activity

City Distance Mag. Time & Date
Minimum magnitude displayed is 2.5.

Earthquake Activity

City Distance Mag. Time & Date
Minimum magnitude displayed is 2.5.

Coastal Water Temperatures

Place Temperature

Stations

Nearby Weather Stations

Station Location Temp. Windchill Dew Point Humidity Wind Precip. Elev Updated Type
                   

Watches & Warnings

There are currently no watches in effect.